sensor_id;sensor_type;location;lat;lon;timestamp;pressure;altitude;pressure_sealevel;temperature;humidity
47815;BME280;33579;50.058;18.130;2023-04-21T00:00:15;99421.91;;;7.94;100.00
47815;BME280;33579;50.058;18.130;2023-04-21T00:01:17;99420.97;;;7.95;100.00
47815;BME280;33579;50.058;18.130;2023-04-21T00:02:18;99418.44;;;7.94;100.00
47815;BME280;33579;50.058;18.130;2023-04-21T00:03:20;99417.94;;;7.88;100.00
47815;BME280;33579;50.058;18.130;2023-04-21T00:04:23;99414.38;;;7.90;100.00
47815;BME280;33579;50.058;18.130;2023-04-21T00:05:25;99419.16;;;7.96;100.00
47815;BME280;33579;50.058;18.130;2023-04-21T00:06:26;99421.56;;;7.99;100.00
47815;BME280;33579;50.058;18.130;2023-04-21T00:07:28;99414.44;;;8.01;100.00
47815;BME280;33579;50.058;18.130;2023-04-21T00:08:29;99413.00;;;7.97;100.00
47815;BME280;33579;50.058;18.130;2023-04-21T00:09:31;99413.72;;;7.99;100.00
47815;BME280;33579;50.058;18.130;2023-04-21T00:10:33;99415.25;;;8.01;100.00
47815;BME280;33579;50.058;18.130;2023-04-21T00:11:34;99416.59;;;8.07;100.00
47815;BME280;33579;50.058;18.130;2023-04-21T00:12:36;99416.41;;;8.10;100.00
47815;BME280;33579;50.058;18.130;2023-04-21T00:13:38;99413.63;;;8.12;100.00
47815;BME280;33579;50.058;18.130;2023-04-21T00:14:42;99416.88;;;8.15;100.00
47815;BME280;33579;50.058;18.130;2023-04-21T00:15:43;99410.81;;;8.15;100.00
47815;BME280;33579;50.058;18.130;2023-04-21T00:16:45;99412.91;;;8.10;100.00
47815;BME280;33579;50.058;18.130;2023-04-21T00:17:46;99406.13;;;8.07;100.00
47815;BME280;33579;50.058;18.130;2023-04-21T00:18:48;99411.50;;;8.06;100.00
47815;BME280;33579;50.058;18.130;2023-04-21T00:19:50;99409.09;;;8.02;100.00
47815;BME280;33579;50.058;18.130;2023-04-21T00:20:51;99414.44;;;8.01;100.00
47815;BME280;33579;50.058;18.130;2023-04-21T00:21:53;99416.97;;;8.02;100.00
47815;BME280;33579;50.058;18.130;2023-04-21T00:22:55;99404.19;;;7.98;100.00
47815;BME280;33579;50.058;18.130;2023-04-21T00:23:57;99408.25;;;8.02;100.00
47815;BME280;33579;50.058;18.130;2023-04-21T00:24:59;99410.78;;;8.04;100.00
47815;BME280;33579;50.058;18.130;2023-04-21T00:26:00;99412.63;;;8.01;100.00
47815;BME280;33579;50.058;18.130;2023-04-21T00:27:02;99414.44;;;8.01;100.00
47815;BME280;33579;50.058;18.130;2023-04-21T00:28:03;99406.81;;;7.98;100.00
47815;BME280;33579;50.058;18.130;2023-04-21T00:29:05;99412.16;;;7.96;100.00
47815;BME280;33579;50.058;18.130;2023-04-21T00:30:07;99416.44;;;7.97;100.00
47815;BME280;33579;50.058;18.130;2023-04-21T00:31:10;99416.34;;;7.99;100.00
47815;BME280;33579;50.058;18.130;2023-04-21T00:32:12;99415.50;;;7.98;100.00
47815;BME280;33579;50.058;18.130;2023-04-21T00:33:13;99412.38;;;7.93;100.00
47815;BME280;33579;50.058;18.130;2023-04-21T00:34:15;99414.66;;;7.98;100.00
47815;BME280;33579;50.058;18.130;2023-04-21T00:35:17;99420.50;;;8.01;100.00
47815;BME280;33579;50.058;18.130;2023-04-21T00:36:18;99404.19;;;7.98;100.00
47815;BME280;33579;50.058;18.130;2023-04-21T00:37:20;99412.63;;;8.01;100.00
47815;BME280;33579;50.058;18.130;2023-04-21T00:38:22;99421.56;;;7.99;100.00
47815;BME280;33579;50.058;18.130;2023-04-21T00:39:23;99409.53;;;7.96;100.00
47815;BME280;33579;50.058;18.130;2023-04-21T00:40:25;99412.16;;;7.96;100.00
47815;BME280;33579;50.058;18.130;2023-04-21T00:41:27;99418.81;;;8.00;100.00
47815;BME280;33579;50.058;18.130;2023-04-21T00:42:30;99411.91;;;7.99;100.00
47815;BME280;33579;50.058;18.130;2023-04-21T00:43:31;99411.91;;;7.99;100.00
47815;BME280;33579;50.058;18.130;2023-04-21T00:44:33;99401.78;;;7.95;100.00
47815;BME280;33579;50.058;18.130;2023-04-21T00:45:35;99408.34;;;8.00;100.00
47815;BME280;33579;50.058;18.130;2023-04-21T00:46:36;99408.34;;;8.00;100.00
47815;BME280;33579;50.058;18.130;2023-04-21T00:47:38;99407.63;;;7.98;100.00
47815;BME280;33579;50.058;18.130;2023-04-21T00:48:40;99405.97;;;7.97;100.00
47815;BME280;33579;50.058;18.130;2023-04-21T00:49:41;99408.91;;;7.93;100.00
47815;BME280;33579;50.058;18.130;2023-04-21T00:50:44;99404.00;;;7.88;100.00
47815;BME280;33579;50.058;18.130;2023-04-21T00:51:45;99405.56;;;7.91;100.00
47815;BME280;33579;50.058;18.130;2023-04-21T00:52:49;99408.28;;;7.89;100.00
47815;BME280;33579;50.058;18.130;2023-04-21T00:53:50;99407.25;;;7.92;100.00
47815;BME280;33579;50.058;18.130;2023-04-21T00:54:52;99408.09;;;7.92;100.00
47815;BME280;33579;50.058;18.130;2023-04-21T00:55:54;99408.09;;;7.92;100.00
47815;BME280;33579;50.058;18.130;2023-04-21T00:56:56;99411.28;;;7.96;100.00
47815;BME280;33579;50.058;18.130;2023-04-21T00:57:59;99407.25;;;7.92;100.00
47815;BME280;33579;50.058;18.130;2023-04-21T00:59:02;99402.66;;;7.82;100.00
47815;BME280;33579;50.058;18.130;2023-04-21T01:00:04;99403.53;;;7.70;100.00
47815;BME280;33579;50.058;18.130;2023-04-21T01:01:06;99399.00;;;7.61;100.00
47815;BME280;33579;50.058;18.130;2023-04-21T01:02:09;99402.19;;;7.64;100.00
47815;BME280;33579;50.058;18.130;2023-04-21T01:03:11;99399.94;;;7.59;100.00
47815;BME280;33579;50.058;18.130;2023-04-21T01:04:15;99395.44;;;7.49;100.00
47815;BME280;33579;50.058;18.130;2023-04-21T01:05:17;99406.97;;;7.46;100.00
47815;BME280;33579;50.058;18.130;2023-04-21T01:06:18;99405.63;;;7.40;100.00
47815;BME280;33579;50.058;18.130;2023-04-21T01:07:20;99403.13;;;7.39;100.00
47815;BME280;33579;50.058;18.130;2023-04-21T01:08:23;99399.88;;;7.35;100.00
47815;BME280;33579;50.058;18.130;2023-04-21T01:09:25;99399.47;;;7.28;100.00
47815;BME280;33579;50.058;18.130;2023-04-21T01:10:27;99404.41;;;7.20;100.00
47815;BME280;33579;50.058;18.130;2023-04-21T01:11:29;99401.69;;;7.22;100.00
47815;BME280;33579;50.058;18.130;2023-04-21T01:12:30;99397.22;;;7.11;100.00
47815;BME280;33579;50.058;18.130;2023-04-21T01:13:32;99396.78;;;7.17;100.00
47815;BME280;33579;50.058;18.130;2023-04-21T01:14:35;99392.56;;;7.14;100.00
47815;BME280;33579;50.058;18.130;2023-04-21T01:15:37;99397.31;;;7.09;100.00
47815;BME280;33579;50.058;18.130;2023-04-21T01:16:39;99396.56;;;7.07;100.00
47815;BME280;33579;50.058;18.130;2023-04-21T01:17:41;99395.50;;;7.10;100.00
47815;BME280;33579;50.058;18.130;2023-04-21T01:18:44;99393.25;;;7.05;100.00
47815;BME280;33579;50.058;18.130;2023-04-21T01:19:46;99395.63;;;7.08;100.00
47815;BME280;33579;50.058;18.130;2023-04-21T01:20:48;99402.09;;;7.15;100.00
47815;BME280;33579;50.058;18.130;2023-04-21T01:21:50;99396.25;;;7.12;100.00
47815;BME280;33579;50.058;18.130;2023-04-21T01:22:52;99396.44;;;7.09;100.00
47815;BME280;33579;50.058;18.130;2023-04-21T01:23:53;99396.38;;;7.10;100.00
47815;BME280;33579;50.058;18.130;2023-04-21T01:24:55;99382.56;;;7.08;100.00
47815;BME280;33579;50.058;18.130;2023-04-21T01:25:57;99398.34;;;7.20;100.00
47815;BME280;33579;50.058;18.130;2023-04-21T01:26:58;99397.06;;;7.25;100.00
47815;BME280;33579;50.058;18.130;2023-04-21T01:28:02;99402.72;;;7.32;100.00
47815;BME280;33579;50.058;18.130;2023-04-21T01:29:03;99400.50;;;7.39;100.00
47815;BME280;33579;50.058;18.130;2023-04-21T01:30:07;99391.47;;;7.43;100.00
47815;BME280;33579;50.058;18.130;2023-04-21T01:31:09;99381.13;;;7.41;100.00
47815;BME280;33579;50.058;18.130;2023-04-21T01:32:16;99399.97;;;7.34;100.00
47815;BME280;33579;50.058;18.130;2023-04-21T01:33:19;99392.88;;;7.23;100.00
47815;BME280;33579;50.058;18.130;2023-04-21T01:34:21;99395.41;;;7.24;100.00
47815;BME280;33579;50.058;18.130;2023-04-21T01:35:23;99392.66;;;7.26;100.00
47815;BME280;33579;50.058;18.130;2023-04-21T01:36:24;99387.16;;;7.17;100.00
47815;BME280;33579;50.058;18.130;2023-04-21T01:37:29;99395.94;;;7.16;100.00
47815;BME280;33579;50.058;18.130;2023-04-21T01:38:31;99385.81;;;7.12;100.00
47815;BME280;33579;50.058;18.130;2023-04-21T01:39:32;99399.38;;;7.17;100.00
47815;BME280;33579;50.058;18.130;2023-04-21T01:40:34;99390.91;;;7.13;100.00
47815;BME280;33579;50.058;18.130;2023-04-21T01:41:36;99391.44;;;7.19;100.00
47815;BME280;33579;50.058;18.130;2023-04-21T01:42:39;99383.06;;;7.13;100.00
47815;BME280;33579;50.058;18.130;2023-04-21T01:43:41;99390.72;;;7.03;100.00
47815;BME280;33579;50.058;18.130;2023-04-21T01:44:43;99390.31;;;6.97;100.00
47815;BME280;33579;50.058;18.130;2023-04-21T01:45:46;99397.53;;;6.93;100.00
47815;BME280;33579;50.058;18.130;2023-04-21T01:46:48;99393.53;;;6.87;100.00
47815;BME280;33579;50.058;18.130;2023-04-21T01:47:51;99394.41;;;6.88;100.00
47815;BME280;33579;50.058;18.130;2023-04-21T01:48:53;99389.78;;;6.92;100.00
47815;BME280;33579;50.058;18.130;2023-04-21T01:49:55;99396.88;;;6.89;100.00
47815;BME280;33579;50.058;18.130;2023-04-21T01:50:56;99393.66;;;6.86;100.00
47815;BME280;33579;50.058;18.130;2023-04-21T01:51:58;99395.94;;;6.91;100.00
47815;BME280;33579;50.058;18.130;2023-04-21T01:52:59;99386.75;;;6.98;100.00
47815;BME280;33579;50.058;18.130;2023-04-21T01:54:01;99391.78;;;6.88;100.00
47815;BME280;33579;50.058;18.130;2023-04-21T01:55:03;99393.44;;;6.76;100.00
47815;BME280;33579;50.058;18.130;2023-04-21T01:56:05;99399.31;;;6.67;100.00
47815;BME280;33579;50.058;18.130;2023-04-21T01:57:06;99386.25;;;6.67;100.00
47815;BME280;33579;50.058;18.130;2023-04-21T01:58:08;99399.81;;;6.72;100.00
47815;BME280;33579;50.058;18.130;2023-04-21T01:59:10;99392.19;;;6.69;100.00
47815;BME280;33579;50.058;18.130;2023-04-21T02:00:12;99400.16;;;6.80;100.00
47815;BME280;33579;50.058;18.130;2023-04-21T02:01:18;99393.53;;;6.87;100.00
47815;BME280;33579;50.058;18.130;2023-04-21T02:02:19;99399.31;;;6.80;100.00
47815;BME280;33579;50.058;18.130;2023-04-21T02:03:21;99395.53;;;6.71;100.00
47815;BME280;33579;50.058;18.130;2023-04-21T02:04:23;99393.44;;;6.63;100.00
47815;BME280;33579;50.058;18.130;2023-04-21T02:05:25;99390.94;;;6.61;100.00
47815;BME280;33579;50.058;18.130;2023-04-21T02:06:27;99390.19;;;6.59;100.00
47815;BME280;33579;50.058;18.130;2023-04-21T02:07:28;99396.69;;;6.67;100.00
47815;BME280;33579;50.058;18.130;2023-04-21T02:08:30;99397.31;;;6.70;100.00
47815;BME280;33579;50.058;18.130;2023-04-21T02:09:32;99396.06;;;6.63;100.00
47815;BME280;33579;50.058;18.130;2023-04-21T02:10:33;99399.63;;;6.62;100.00
47815;BME280;33579;50.058;18.130;2023-04-21T02:11:35;99402.63;;;6.56;100.00
47815;BME280;33579;50.058;18.130;2023-04-21T02:12:37;99403.13;;;6.35;100.00
47815;BME280;33579;50.058;18.130;2023-04-21T02:13:38;99407.19;;;6.26;100.00
47815;BME280;33579;50.058;18.130;2023-04-21T02:14:40;99404.47;;;6.28;100.00
47815;BME280;33579;50.058;18.130;2023-04-21T02:15:42;99401.75;;;6.29;100.00
47815;BME280;33579;50.058;18.130;2023-04-21T02:16:43;99401.00;;;6.27;100.00
47815;BME280;33579;50.058;18.130;2023-04-21T02:17:45;99402.28;;;6.35;100.00
47815;BME280;33579;50.058;18.130;2023-04-21T02:18:47;99399.47;;;6.38;100.00
47815;BME280;33579;50.058;18.130;2023-04-21T02:19:48;99405.00;;;6.33;100.00
47815;BME280;33579;50.058;18.130;2023-04-21T02:20:50;99407.72;;;6.31;100.00
47815;BME280;33579;50.058;18.130;2023-04-21T02:21:52;99404.13;;;6.19;100.00
47815;BME280;33579;50.058;18.130;2023-04-21T02:22:55;99409.25;;;6.21;100.00
47815;BME280;33579;50.058;18.130;2023-04-21T02:23:57;99407.47;;;6.22;100.00
47815;BME280;33579;50.058;18.130;2023-04-21T02:25:00;99409.16;;;6.23;100.00
47815;BME280;33579;50.058;18.130;2023-04-21T02:26:01;99399.84;;;6.18;100.00
47815;BME280;33579;50.058;18.130;2023-04-21T02:27:05;99408.72;;;6.16;100.00
47815;BME280;33579;50.058;18.130;2023-04-21T02:28:07;99409.66;;;6.15;100.00
47815;BME280;33579;50.058;18.130;2023-04-21T02:29:09;99405.16;;;6.17;100.00
47815;BME280;33579;50.058;18.130;2023-04-21T02:30:12;99407.38;;;6.23;100.00
47815;BME280;33579;50.058;18.130;2023-04-21T02:31:16;99411.16;;;6.32;100.00
47815;BME280;33579;50.058;18.130;2023-04-21T02:32:18;99405.72;;;6.35;100.00
47815;BME280;33579;50.058;18.130;2023-04-21T02:33:26;99404.69;;;6.25;100.00
47815;BME280;33579;50.058;18.130;2023-04-21T02:34:28;99400.00;;;6.02;100.00
47815;BME280;33579;50.058;18.130;2023-04-21T02:35:30;99411.94;;;5.92;100.00
47815;BME280;33579;50.058;18.130;2023-04-21T02:36:32;99407.56;;;5.93;100.00
47815;BME280;33579;50.058;18.130;2023-04-21T02:37:34;99407.06;;;6.00;100.00
47815;BME280;33579;50.058;18.130;2023-04-21T02:38:35;99417.72;;;5.97;100.00
47815;BME280;33579;50.058;18.130;2023-04-21T02:39:37;99408.72;;;5.88;100.00
47815;BME280;33579;50.058;18.130;2023-04-21T02:40:39;99415.75;;;6.01;100.00
47815;BME280;33579;50.058;18.130;2023-04-21T02:41:41;99417.06;;;6.08;100.00
47815;BME280;33579;50.058;18.130;2023-04-21T02:42:42;99422.84;;;6.13;100.00
47815;BME280;33579;50.058;18.130;2023-04-21T02:43:44;99419.94;;;6.18;100.00
47815;BME280;33579;50.058;18.130;2023-04-21T02:44:45;99426.63;;;6.22;100.00
47815;BME280;33579;50.058;18.130;2023-04-21T02:45:47;99418.78;;;6.22;100.00
47815;BME280;33579;50.058;18.130;2023-04-21T02:46:48;99420.44;;;6.23;100.00
47815;BME280;33579;50.058;18.130;2023-04-21T02:47:50;99424.00;;;6.22;100.00
47815;BME280;33579;50.058;18.130;2023-04-21T02:48:52;99422.13;;;6.24;100.00
47815;BME280;33579;50.058;18.130;2023-04-21T02:49:53;99420.44;;;6.23;100.00
47815;BME280;33579;50.058;18.130;2023-04-21T02:50:55;99420.88;;;6.30;100.00
47815;BME280;33579;50.058;18.130;2023-04-21T02:51:57;99421.09;;;6.27;100.00
47815;BME280;33579;50.058;18.130;2023-04-21T02:52:58;99414.81;;;6.29;100.00
47815;BME280;33579;50.058;18.130;2023-04-21T02:54:00;99416.69;;;6.27;100.00
47815;BME280;33579;50.058;18.130;2023-04-21T02:55:02;99416.97;;;6.10;100.00
47815;BME280;33579;50.058;18.130;2023-04-21T02:56:04;99417.38;;;5.89;100.00
47815;BME280;33579;50.058;18.130;2023-04-21T02:57:06;99416.28;;;5.79;100.00
47815;BME280;33579;50.058;18.130;2023-04-21T02:58:07;99411.09;;;5.64;100.00
47815;BME280;33579;50.058;18.130;2023-04-21T02:59:09;99415.66;;;5.60;100.00
47815;BME280;33579;50.058;18.130;2023-04-21T03:00:11;99418.63;;;5.69;100.00
47815;BME280;33579;50.058;18.130;2023-04-21T03:01:13;99421.50;;;5.79;100.00
47815;BME280;33579;50.058;18.130;2023-04-21T03:02:14;99418.59;;;5.83;100.00
47815;BME280;33579;50.058;18.130;2023-04-21T03:03:16;99416.47;;;5.75;100.00
47815;BME280;33579;50.058;18.130;2023-04-21T03:04:18;99429.28;;;5.66;100.00
47815;BME280;33579;50.058;18.130;2023-04-21T03:05:20;99426.41;;;5.56;100.00
47815;BME280;33579;50.058;18.130;2023-04-21T03:06:21;99436.66;;;5.59;100.00
47815;BME280;33579;50.058;18.130;2023-04-21T03:07:23;99438.53;;;5.57;100.00
47815;BME280;33579;50.058;18.130;2023-04-21T03:08:25;99451.59;;;5.57;100.00
47815;BME280;33579;50.058;18.130;2023-04-21T03:09:26;99438.13;;;5.63;100.00
47815;BME280;33579;50.058;18.130;2023-04-21T03:10:28;99431.88;;;5.66;100.00
47815;BME280;33579;50.058;18.130;2023-04-21T03:11:29;99431.44;;;5.59;100.00
47815;BME280;33579;50.058;18.130;2023-04-21T03:12:31;99428.28;;;5.39;100.00
47815;BME280;33579;50.058;18.130;2023-04-21T03:13:33;99428.50;;;5.22;100.00
47815;BME280;33579;50.058;18.130;2023-04-21T03:14:35;99422.44;;;5.06;100.00
47815;BME280;33579;50.058;18.130;2023-04-21T03:15:36;99422.31;;;4.93;100.00
47815;BME280;33579;50.058;18.130;2023-04-21T03:16:38;99427.72;;;4.90;100.00
47815;BME280;33579;50.058;18.130;2023-04-21T03:17:40;99428.78;;;4.88;100.00
47815;BME280;33579;50.058;18.130;2023-04-21T03:18:41;99428.00;;;4.86;100.00
47815;BME280;33579;50.058;18.130;2023-04-21T03:19:45;99427.66;;;4.92;100.00
47815;BME280;33579;50.058;18.130;2023-04-21T03:20:46;99420.09;;;5.02;100.00
47815;BME280;33579;50.058;18.130;2023-04-21T03:21:48;99419.34;;;5.14;100.00
47815;BME280;33579;50.058;18.130;2023-04-21T03:22:52;99423.09;;;5.25;100.00
47815;BME280;33579;50.058;18.130;2023-04-21T03:23:54;99415.63;;;5.33;100.00
47815;BME280;33579;50.058;18.130;2023-04-21T03:24:55;99421.84;;;5.45;100.00
47815;BME280;33579;50.058;18.130;2023-04-21T03:25:57;99406.31;;;5.43;100.00
47815;BME280;33579;50.058;18.130;2023-04-21T03:26:59;99419.41;;;5.56;100.00
47815;BME280;33579;50.058;18.130;2023-04-21T03:28:00;99415.38;;;5.65;100.00
47815;BME280;33579;50.058;18.130;2023-04-21T03:29:02;99417.06;;;5.66;100.00
47815;BME280;33579;50.058;18.130;2023-04-21T03:30:04;99414.28;;;5.69;100.00
47815;BME280;33579;50.058;18.130;2023-04-21T03:31:06;99417.81;;;5.68;100.00
47815;BME280;33579;50.058;18.130;2023-04-21T03:32:08;99414.28;;;5.55;100.00
47815;BME280;33579;50.058;18.130;2023-04-21T03:33:10;99410.09;;;5.52;100.00
47815;BME280;33579;50.058;18.130;2023-04-21T03:34:11;99420.81;;;5.62;100.00
47815;BME280;33579;50.058;18.130;2023-04-21T03:35:13;99423.22;;;5.65;100.00
47815;BME280;33579;50.058;18.130;2023-04-21T03:36:15;99417.69;;;5.70;100.00
47815;BME280;33579;50.058;18.130;2023-04-21T03:37:17;99420.13;;;5.73;100.00
47815;BME280;33579;50.058;18.130;2023-04-21T03:38:18;99416.47;;;5.75;100.00
47815;BME280;33579;50.058;18.130;2023-04-21T03:39:20;99414.88;;;5.73;100.00
47815;BME280;33579;50.058;18.130;2023-04-21T03:40:23;99420.03;;;5.74;100.00
47815;BME280;33579;50.058;18.130;2023-04-21T03:41:25;99413.88;;;5.75;100.00
47815;BME280;33579;50.058;18.130;2023-04-21T03:42:27;99419.81;;;5.77;100.00
47815;BME280;33579;50.058;18.130;2023-04-21T03:43:30;99414.59;;;5.77;100.00
47815;BME280;33579;50.058;18.130;2023-04-21T03:44:32;99413.13;;;5.73;100.00
47815;BME280;33579;50.058;18.130;2023-04-21T03:45:35;99421.69;;;5.75;100.00
47815;BME280;33579;50.058;18.130;2023-04-21T03:46:37;99418.34;;;5.73;100.00
47815;BME280;33579;50.058;18.130;2023-04-21T03:47:39;99414.59;;;5.77;100.00
47815;BME280;33579;50.058;18.130;2023-04-21T03:48:41;99412.28;;;5.73;100.00
47815;BME280;33579;50.058;18.130;2023-04-21T03:49:42;99420.44;;;5.68;100.00
47815;BME280;33579;50.058;18.130;2023-04-21T03:50:44;99414.44;;;5.66;100.00
47815;BME280;33579;50.058;18.130;2023-04-21T03:51:45;99422.38;;;5.65;100.00
47815;BME280;33579;50.058;18.130;2023-04-21T03:52:47;99414.94;;;5.58;100.00
47815;BME280;33579;50.058;18.130;2023-04-21T03:53:49;99418.69;;;5.54;100.00
47815;BME280;33579;50.058;18.130;2023-04-21T03:54:50;99422.97;;;5.55;100.00
47815;BME280;33579;50.058;18.130;2023-04-21T03:55:52;99424.84;;;5.53;100.00
47815;BME280;33579;50.058;18.130;2023-04-21T03:56:53;99414.88;;;5.45;100.00
47815;BME280;33579;50.058;18.130;2023-04-21T03:57:55;99414.69;;;5.48;100.00
47815;BME280;33579;50.058;18.130;2023-04-21T03:58:57;99427.81;;;5.47;100.00
47815;BME280;33579;50.058;18.130;2023-04-21T03:59:58;99428.84;;;5.44;100.00
47815;BME280;33579;50.058;18.130;2023-04-21T04:01:00;99430.63;;;5.44;100.00
47815;BME280;33579;50.058;18.130;2023-04-21T04:02:02;99432.28;;;5.45;100.00
47815;BME280;33579;50.058;18.130;2023-04-21T04:03:03;99430.63;;;5.44;100.00
47815;BME280;33579;50.058;18.130;2023-04-21T04:04:05;99438.91;;;5.51;100.00
47815;BME280;33579;50.058;18.130;2023-04-21T04:05:07;99435.75;;;5.45;100.00
47815;BME280;33579;50.058;18.130;2023-04-21T04:06:09;99439.84;;;5.49;100.00
47815;BME280;33579;50.058;18.130;2023-04-21T04:07:10;99432.09;;;5.48;100.00
47815;BME280;33579;50.058;18.130;2023-04-21T04:08:12;99435.34;;;5.52;100.00
47815;BME280;33579;50.058;18.130;2023-04-21T04:09:14;99434.13;;;5.57;100.00
47815;BME280;33579;50.058;18.130;2023-04-21T04:10:16;99429.13;;;5.54;100.00
47815;BME280;33579;50.058;18.130;2023-04-21T04:11:17;99434.16;;;5.43;100.00
47815;BME280;33579;50.058;18.130;2023-04-21T04:12:19;99427.09;;;5.30;100.00
47815;BME280;33579;50.058;18.130;2023-04-21T04:13:20;99434.53;;;5.22;100.00
47815;BME280;33579;50.058;18.130;2023-04-21T04:14:22;99434.25;;;5.27;100.00
47815;BME280;33579;50.058;18.130;2023-04-21T04:15:23;99429.63;;;5.32;100.00
47815;BME280;33579;50.058;18.130;2023-04-21T04:16:25;99432.75;;;5.37;100.00
47815;BME280;33579;50.058;18.130;2023-04-21T04:17:27;99435.00;;;5.43;100.00
47815;BME280;33579;50.058;18.130;2023-04-21T04:18:29;99433.88;;;5.47;100.00
47815;BME280;33579;50.058;18.130;2023-04-21T04:19:30;99430.13;;;5.52;100.00
47815;BME280;33579;50.058;18.130;2023-04-21T04:20:32;99434.41;;;5.53;100.00
47815;BME280;33579;50.058;18.130;2023-04-21T04:21:33;99440.22;;;5.58;100.00
47815;BME280;33579;50.058;18.130;2023-04-21T04:22:35;99440.69;;;5.50;100.00
47815;BME280;33579;50.058;18.130;2023-04-21T04:23:37;99459.78;;;5.51;100.00
47815;BME280;33579;50.058;18.130;2023-04-21T04:24:38;99449.25;;;5.52;100.00
47815;BME280;33579;50.058;18.130;2023-04-21T04:25:40;99436.22;;;5.52;100.00
47815;BME280;33579;50.058;18.130;2023-04-21T04:26:41;99450.25;;;5.64;100.00
47815;BME280;33579;50.058;18.130;2023-04-21T04:27:43;99445.41;;;5.72;100.00
47815;BME280;33579;50.058;18.130;2023-04-21T04:28:44;99442.38;;;5.79;100.00
47815;BME280;33579;50.058;18.130;2023-04-21T04:29:46;99438.84;;;5.80;100.00
47815;BME280;33579;50.058;18.130;2023-04-21T04:30:48;99449.09;;;5.83;100.00
47815;BME280;33579;50.058;18.130;2023-04-21T04:31:50;99442.13;;;5.69;100.00
47815;BME280;33579;50.058;18.130;2023-04-21T04:32:51;99450.00;;;5.54;100.00
47815;BME280;33579;50.058;18.130;2023-04-21T04:33:53;99453.25;;;5.58;100.00
47815;BME280;33579;50.058;18.130;2023-04-21T04:34:56;99454.38;;;5.68;100.00
47815;BME280;33579;50.058;18.130;2023-04-21T04:35:57;99452.22;;;5.75;100.00
47815;BME280;33579;50.058;18.130;2023-04-21T04:37:01;99451.59;;;5.84;100.00
47815;BME280;33579;50.058;18.130;2023-04-21T04:38:02;99451.03;;;5.94;100.00
47815;BME280;33579;50.058;18.130;2023-04-21T04:39:04;99451.22;;;5.90;100.00
47815;BME280;33579;50.058;18.130;2023-04-21T04:40:08;99455.44;;;5.93;100.00
47815;BME280;33579;50.058;18.130;2023-04-21T04:41:10;99458.56;;;5.98;100.00
47815;BME280;33579;50.058;18.130;2023-04-21T04:42:11;99466.97;;;6.03;100.00
47815;BME280;33579;50.058;18.130;2023-04-21T04:43:13;99456.44;;;6.05;100.00
47815;BME280;33579;50.058;18.130;2023-04-21T04:44:14;99457.53;;;6.15;100.00
47815;BME280;33579;50.058;18.130;2023-04-21T04:45:16;99466.25;;;6.29;100.00
47815;BME280;33579;50.058;18.130;2023-04-21T04:46:18;99459.19;;;6.44;100.00
47815;BME280;33579;50.058;18.130;2023-04-21T04:47:19;99453.25;;;6.55;100.00
47815;BME280;33579;50.058;18.130;2023-04-21T04:48:21;99457.00;;;6.64;100.00
47815;BME280;33579;50.058;18.130;2023-04-21T04:49:22;99457.13;;;6.75;100.00
47815;BME280;33579;50.058;18.130;2023-04-21T04:50:24;99448.59;;;6.86;100.00
47815;BME280;33579;50.058;18.130;2023-04-21T04:51:26;99446.69;;;6.88;100.00
47815;BME280;33579;50.058;18.130;2023-04-21T04:52:28;99455.38;;;6.88;100.00
47815;BME280;33579;50.058;18.130;2023-04-21T04:53:29;99452.03;;;6.86;100.00
47815;BME280;33579;50.058;18.130;2023-04-21T04:54:31;99452.97;;;6.85;100.00
47815;BME280;33579;50.058;18.130;2023-04-21T04:55:33;99448.25;;;6.91;100.00
47815;BME280;33579;50.058;18.130;2023-04-21T04:56:34;99456.53;;;6.97;100.00
47815;BME280;33579;50.058;18.130;2023-04-21T04:57:36;99446.59;;;7.02;100.00
47815;BME280;33579;50.058;18.130;2023-04-21T04:58:37;99454.78;;;7.11;100.00
47815;BME280;33579;50.058;18.130;2023-04-21T04:59:39;99447.34;;;7.17;100.00
47815;BME280;33579;50.058;18.130;2023-04-21T05:00:40;99451.19;;;7.25;100.00
47815;BME280;33579;50.058;18.130;2023-04-21T05:01:42;99447.22;;;7.32;100.00
47815;BME280;33579;50.058;18.130;2023-04-21T05:02:44;99445.72;;;7.41;100.00
47815;BME280;33579;50.058;18.130;2023-04-21T05:03:45;99448.13;;;7.44;100.00
47815;BME280;33579;50.058;18.130;2023-04-21T05:04:48;99450.66;;;7.45;100.00
47815;BME280;33579;50.058;18.130;2023-04-21T05:05:50;99443.81;;;7.56;100.00
47815;BME280;33579;50.058;18.130;2023-04-21T05:06:51;99455.44;;;7.65;100.00
47815;BME280;33579;50.058;18.130;2023-04-21T05:07:53;99450.03;;;7.79;100.00
47815;BME280;33579;50.058;18.130;2023-04-21T05:08:55;99452.22;;;7.85;100.00
47815;BME280;33579;50.058;18.130;2023-04-21T05:09:56;99447.06;;;7.97;100.00
47815;BME280;33579;50.058;18.130;2023-04-21T05:10:58;99448.03;;;8.07;100.00
47815;BME280;33579;50.058;18.130;2023-04-21T05:11:59;99455.53;;;8.25;100.00
47815;BME280;33579;50.058;18.130;2023-04-21T05:13:01;99450.00;;;8.41;100.00
47815;BME280;33579;50.058;18.130;2023-04-21T05:14:03;99448.38;;;8.51;100.00
47815;BME280;33579;50.058;18.130;2023-04-21T05:15:05;99455.50;;;8.49;100.00
47815;BME280;33579;50.058;18.130;2023-04-21T05:16:07;99454.66;;;8.49;100.00
47815;BME280;33579;50.058;18.130;2023-04-21T05:17:09;99463.28;;;8.51;100.00
47815;BME280;33579;50.058;18.130;2023-04-21T05:18:11;99452.88;;;8.49;100.00
47815;BME280;33579;50.058;18.130;2023-04-21T05:19:12;99466.53;;;8.54;100.00
47815;BME280;33579;50.058;18.130;2023-04-21T05:20:16;99456.75;;;8.56;100.00
47815;BME280;33579;50.058;18.130;2023-04-21T05:21:24;99464.53;;;8.69;100.00
47815;BME280;33579;50.058;18.130;2023-04-21T05:22:26;99464.56;;;8.92;100.00
47815;BME280;33579;50.058;18.130;2023-04-21T05:23:27;99469.25;;;9.11;100.00